Tuesday, January 16, 2018, 12:25 PM EST
Back to Local

KUNV, State College, University Park Airport

Location: State College, PA, United States Lat: 40.85
Local Time: 12:25 PM EST (17:25 GMT) Lon: -77.85
Time Zone: US/Eastern Elev: 1240 ft

Show me the last for .
Show Decoded

2018-01-16 11:53 METAR KUNV 161653Z 00000KT 4SM -SN SCT010 SCT020 OVC045 M04/M06 A3036 =
2018-01-16 10:53 METAR KUNV 161553Z 00000KT 7SM OVC041 M04/M06 A3038 =
2018-01-16 09:53 METAR KUNV 161453Z 00000KT 7SM OVC045 M05/M07 A3038 =
2018-01-16 08:53 METAR KUNV 161353Z 00000KT 7SM OVC042 M05/M07 A3038 =
2018-01-16 07:53 METAR KUNV 161253Z 00000KT 5SM -SN OVC044 M06/M07 A3037 =
2018-01-16 06:53 METAR KUNV 161153Z 00000KT 5SM -SN OVC044 M06/M07 A3037 =
2018-01-16 05:53 METAR KUNV 161053Z 00000KT 3SM -SN OVC023 M06/M07 A3037 =
2018-01-16 05:35 METAR KUNV 161035Z AUTO 25004KT 5SM -SN OVC023 M05/M07 A3035 RMK AO2 T10551074 =
2018-01-16 05:15 METAR KUNV 161015Z AUTO 27005KT 10SM -SN BKN023 OVC040 M06/M07 A3035 RMK AO2
                 T10561075 =
2018-01-16 04:55 METAR KUNV 160955Z AUTO 29004KT 10SM SCT023 OVC042 M06/M07 A3034 RMK AO2
                 T10561075 =
2018-01-16 04:35 METAR KUNV 160935Z AUTO 28003KT 10SM SCT033 OVC042 M06/M08 A3034 RMK AO2
                 T10571076 =
2018-01-16 04:15 METAR KUNV 160915Z AUTO 00000KT 10SM BKN035 OVC043 M06/M07 A3034 RMK AO2
                 T10571075 =
2018-01-16 03:55 METAR KUNV 160855Z AUTO 28003KT 10SM -SN OVC041 M06/M08 A3035 RMK AO2 T10571077
                 =
2018-01-16 03:35 METAR KUNV 160835Z AUTO 23005KT 10SM -SN BKN041 OVC047 M05/M08 A3035 RMK AO2
                 T10531077 =
2018-01-16 03:15 METAR KUNV 160815Z AUTO 20004KT 10SM -SN OVC046 M05/M08 A3035 RMK AO2 T10541078
                 =
2018-01-16 02:55 METAR KUNV 160755Z AUTO 24005KT 10SM OVC050 M05/M08 A3035 RMK AO2 T10551077 =
2018-01-16 02:35 METAR KUNV 160735Z AUTO 22004KT 10SM -SN SCT044 OVC050 M06/M08 A3035 RMK AO2
                 T10561077 =
2018-01-16 02:15 METAR KUNV 160715Z AUTO 22004KT 10SM BKN050 BKN060 OVC080 M06/M08 A3034 RMK AO2
                 T10571077 =
2018-01-16 01:55 METAR KUNV 160655Z AUTO 00000KT 10SM BKN050 OVC080 M06/M08 A3034 RMK AO2
                 T10601078 =
2018-01-16 01:35 METAR KUNV 160635Z AUTO 23004KT 10SM SCT048 OVC060 M06/M08 A3034 RMK AO2
                 T10601077 =
2018-01-16 01:15 METAR KUNV 160615Z AUTO 20004KT 7SM -SN SCT055 OVC070 M06/M08 A3034 RMK AO2
                 T10631078 =
2018-01-16 00:55 METAR KUNV 160555Z AUTO 23005KT 4SM -SN SCT010 SCT024 OVC070 M06/M08 A3034 RMK
                 AO2 T10641078 11060 21070 =
2018-01-16 00:35 METAR KUNV 160535Z AUTO 21004KT 2SM -SN OVC010 M06/M08 A3034 RMK AO2 T10651080 =
2018-01-16 00:15 METAR KUNV 160515Z AUTO 24004KT 4SM -SN SCT016 BKN029 OVC060 M06/M08 A3035 RMK
                 AO2 T10651080 =
2018-01-15 23:55 METAR KUNV 160455Z AUTO 25003KT 5SM -SN OVC055 M06/M08 A3035 RMK AO2 T10651082 =
2018-01-15 23:35 METAR KUNV 160435Z AUTO 24003KT 4SM -SN SCT043 OVC055 M06/M08 A3036 RMK AO2
                 T10651082 =
2018-01-15 23:15 METAR KUNV 160415Z AUTO 25003KT 7SM -SN SCT043 BKN050 OVC055 M06/M08 A3037 RMK
                 AO2 T10651083 =
2018-01-15 22:55 METAR KUNV 160355Z AUTO 00000KT 2 1/2SM -SN SCT018 SCT023 OVC050 M06/M09 A3038
                 RMK AO2 T10631086 410551150 =
2018-01-15 22:35 METAR KUNV 160335Z AUTO 20005KT 7SM -SN SCT020 OVC025 M06/M09 A3038 RMK AO2
                 T10621091 =
2018-01-15 22:15 METAR KUNV 160315Z AUTO 22006KT 10SM -SN SCT022 SCT027 OVC037 M06/M09 A3038 RMK
                 AO2 T10621095 =
2018-01-15 21:53 METAR KUNV 160253Z 00000KT 10SM SCT035 OVC048 M06/M10 A3038 =
2018-01-15 20:53 METAR KUNV 160153Z 00000KT 10SM OVC050 M06/M10 A3038 =
2018-01-15 19:53 METAR KUNV 160053Z 00000KT 10SM SCT017 OVC048 M07/M10 A3037 =
2018-01-15 18:53 METAR KUNV 152353Z 00000KT 10SM OVC055 M07/M10 A3038 =
2018-01-15 17:53 METAR KUNV 152253Z 17005KT 10SM BKN055 M06/M11 A3039 =
2018-01-15 16:53 METAR KUNV 152153Z 00000KT 10SM BKN110 M06/M12 A3039 =
2018-01-15 15:53 METAR KUNV 152053Z 20005KT 10SM SKC M06/M12 A3038 =
2018-01-15 14:53 METAR KUNV 151953Z 26003KT 10SM SCT043 BKN055 M06/M13 A3040 =
2018-01-15 13:53 METAR KUNV 151853Z 20005KT 10SM BKN060 OVC070 M07/M14 A3041 =
2018-01-15 12:53 METAR KUNV 151753Z 00000KT 10SM OVC095 M08/M15 A3044 =

Support USWX by starting your Amazon purchase here.